createdAt,value
2023-03-07T00:01:26.589Z,-1.30
2023-03-07T00:03:55.337Z,-1.30
2023-03-07T00:06:24.460Z,-1.30
2023-03-07T00:08:54.205Z,-1.30
2023-03-07T00:11:24.200Z,-1.40
2023-03-07T00:13:53.288Z,-1.50
2023-03-07T00:16:23.815Z,-1.50
2023-03-07T00:18:52.612Z,-1.60
2023-03-07T00:21:23.769Z,-1.60
2023-03-07T00:23:54.173Z,-1.50
2023-03-07T00:26:26.279Z,-1.40
2023-03-07T00:28:55.878Z,-1.30
2023-03-07T00:31:27.760Z,-1.20
2023-03-07T00:34:00.116Z,-1.10
2023-03-07T00:36:29.748Z,-1.20
2023-03-07T00:38:59.582Z,-1.10
2023-03-07T00:41:31.261Z,-1.10
2023-03-07T00:44:01.270Z,-1.00
2023-03-07T00:46:30.334Z,-1.00
2023-03-07T00:48:59.804Z,-1.00
2023-03-07T00:51:29.135Z,-1.00
2023-03-07T00:53:59.533Z,-0.90
2023-03-07T00:56:35.550Z,-0.90
2023-03-07T00:59:08.581Z,-0.90
2023-03-07T01:01:37.717Z,-0.90
2023-03-07T01:04:06.615Z,-0.90
2023-03-07T01:06:35.856Z,-0.80
2023-03-07T01:09:07.426Z,-0.80
2023-03-07T01:11:38.568Z,-0.80
2023-03-07T01:14:08.263Z,-0.70
2023-03-07T01:16:38.915Z,-0.80
2023-03-07T01:19:12.754Z,-0.70
2023-03-07T01:21:42.819Z,-0.80
2023-03-07T01:24:15.472Z,-0.70
2023-03-07T01:26:46.647Z,-0.70
2023-03-07T01:29:17.775Z,-0.80
2023-03-07T01:31:46.596Z,-0.80
2023-03-07T01:34:17.465Z,-0.70
2023-03-07T01:36:46.076Z,-0.70
2023-03-07T01:39:17.141Z,-0.70
2023-03-07T01:41:47.677Z,-0.60
2023-03-07T01:44:18.992Z,-0.60
2023-03-07T01:46:50.462Z,-0.60
2023-03-07T01:49:32.786Z,-0.70
2023-03-07T01:52:06.781Z,-0.70
2023-03-07T01:54:39.874Z,-0.80
2023-03-07T01:57:10.949Z,-0.80
2023-03-07T01:59:44.694Z,-0.80
2023-03-07T02:02:18.532Z,-0.80
2023-03-07T02:04:52.575Z,-0.90
2023-03-07T02:07:23.641Z,-0.90
2023-03-07T02:09:54.230Z,-0.90
2023-03-07T02:12:24.284Z,-0.90
2023-03-07T02:14:53.831Z,-0.90
2023-03-07T02:17:22.595Z,-1.00
2023-03-07T02:20:05.340Z,-1.00
2023-03-07T02:22:34.077Z,-1.00
2023-03-07T02:25:07.799Z,-1.00
2023-03-07T02:27:40.790Z,-1.00
2023-03-07T02:30:13.214Z,-1.10
2023-03-07T02:32:43.233Z,-1.10
2023-03-07T02:35:19.000Z,-1.10
2023-03-07T02:37:51.618Z,-1.10
2023-03-07T02:40:24.466Z,-1.10
2023-03-07T02:42:59.504Z,-1.00
2023-03-07T02:45:28.335Z,-1.00
2023-03-07T02:47:56.803Z,-1.00
2023-03-07T02:50:25.600Z,-0.90
2023-03-07T02:52:54.320Z,-0.90
2023-03-07T02:55:23.287Z,-0.80
2023-03-07T02:57:53.849Z,-0.70
2023-03-07T03:00:23.558Z,-0.70
2023-03-07T03:02:52.535Z,-0.70
2023-03-07T03:05:22.089Z,-0.70
2023-03-07T03:07:50.775Z,-0.70
2023-03-07T03:10:19.533Z,-0.70
2023-03-07T03:12:48.180Z,-0.70
2023-03-07T03:15:18.653Z,-0.80
2023-03-07T03:17:47.365Z,-0.80
2023-03-07T03:20:17.141Z,-0.90
2023-03-07T03:22:45.613Z,-1.00
2023-03-07T03:25:16.388Z,-1.00
2023-03-07T03:27:46.275Z,-1.20
2023-03-07T03:30:18.351Z,-1.20
2023-03-07T03:32:47.737Z,-1.10
2023-03-07T03:35:17.043Z,-1.10
2023-03-07T03:37:45.853Z,-1.10
2023-03-07T03:40:17.659Z,-1.10
2023-03-07T03:42:47.094Z,-1.10
2023-03-07T03:45:17.494Z,-1.00
2023-03-07T03:47:48.690Z,-0.90
2023-03-07T03:50:17.916Z,-0.90
2023-03-07T03:52:46.573Z,-0.90
2023-03-07T03:55:15.820Z,-1.00
2023-03-07T03:57:44.369Z,-1.00
2023-03-07T04:00:16.105Z,-0.90
2023-03-07T04:02:46.382Z,-1.00
2023-03-07T04:05:15.892Z,-1.00
2023-03-07T04:07:57.491Z,-1.00
2023-03-07T04:10:25.747Z,-1.00
2023-03-07T04:12:54.017Z,-1.10
2023-03-07T04:15:22.237Z,-1.20
2023-03-07T04:17:52.076Z,-1.20
2023-03-07T04:20:21.673Z,-1.20
2023-03-07T04:22:50.214Z,-1.20
2023-03-07T04:25:18.539Z,-1.20
2023-03-07T04:27:46.737Z,-1.20
2023-03-07T04:30:15.202Z,-1.10
2023-03-07T04:32:43.601Z,-1.20
2023-03-07T04:35:13.256Z,-1.20
2023-03-07T04:37:41.464Z,-1.20
2023-03-07T04:40:10.804Z,-1.20
2023-03-07T04:42:39.067Z,-1.10
2023-03-07T04:45:08.857Z,-1.00
2023-03-07T04:47:37.134Z,-1.00
2023-03-07T04:50:05.934Z,-1.00
2023-03-07T04:52:35.548Z,-1.00
2023-03-07T04:55:04.048Z,-1.00
2023-03-07T04:57:32.249Z,-0.90
2023-03-07T05:00:00.517Z,-0.90
2023-03-07T05:02:28.720Z,-0.90
2023-03-07T05:04:56.988Z,-0.90
2023-03-07T05:07:25.348Z,-0.90
2023-03-07T05:09:54.935Z,-0.90
2023-03-07T05:12:26.622Z,-0.80
2023-03-07T05:14:54.892Z,-0.80
2023-03-07T05:17:23.173Z,-0.80
2023-03-07T05:19:51.553Z,-0.80
2023-03-07T05:22:19.882Z,-0.90
2023-03-07T05:24:48.137Z,-0.90
2023-03-07T05:27:17.837Z,-0.90
2023-03-07T05:29:46.280Z,-0.80
2023-03-07T05:32:15.469Z,-0.80
2023-03-07T05:34:45.197Z,-0.90
2023-03-07T05:37:13.481Z,-0.90
2023-03-07T05:39:41.755Z,-0.90
2023-03-07T05:42:09.986Z,-0.90
2023-03-07T05:44:39.726Z,-0.80
2023-03-07T05:47:08.004Z,-0.80
2023-03-07T05:49:36.269Z,-0.70
2023-03-07T05:52:04.711Z,-0.70
2023-03-07T05:54:32.930Z,-0.70
2023-03-07T05:57:01.169Z,-0.70
2023-03-07T05:59:29.376Z,-0.60
2023-03-07T06:01:59.010Z,-0.50
2023-03-07T06:04:27.380Z,-0.50
2023-03-07T06:06:55.688Z,-0.40
2023-03-07T06:09:25.921Z,-0.30
2023-03-07T06:11:54.174Z,-0.30
2023-03-07T06:14:22.441Z,-0.20
2023-03-07T06:16:50.770Z,-0.10
2023-03-07T06:19:20.378Z,-0.10
2023-03-07T06:21:48.560Z,0.00
2023-03-07T06:24:16.795Z,0.10
2023-03-07T06:26:45.125Z,0.20
2023-03-07T06:29:13.402Z,0.20
2023-03-07T06:31:41.690Z,0.30
2023-03-07T06:34:10.142Z,0.40
2023-03-07T06:36:41.216Z,0.40
2023-03-07T06:39:09.493Z,0.50
2023-03-07T06:41:37.691Z,0.60
2023-03-07T06:44:06.088Z,0.60
2023-03-07T06:46:34.396Z,0.60
2023-03-07T06:49:02.682Z,0.60
2023-03-07T06:51:30.904Z,0.60
2023-03-07T06:54:00.529Z,0.60
2023-03-07T06:56:30.325Z,0.60
2023-03-07T06:58:58.948Z,0.60
2023-03-07T07:01:27.152Z,0.60
2023-03-07T07:03:55.350Z,0.70
2023-03-07T07:06:23.643Z,0.70
2023-03-07T07:08:56.319Z,0.80
2023-03-07T07:11:26.727Z,0.80
2023-03-07T07:13:54.997Z,0.80
2023-03-07T07:16:23.299Z,0.80
2023-03-07T07:18:53.045Z,0.90
2023-03-07T07:21:21.379Z,0.90
2023-03-07T07:23:49.599Z,0.90
2023-03-07T07:26:17.816Z,0.90
2023-03-07T07:28:47.464Z,1.00
2023-03-07T07:31:16.037Z,1.00
2023-03-07T07:33:46.377Z,1.10
2023-03-07T07:36:14.581Z,1.10
2023-03-07T07:38:42.808Z,1.30
2023-03-07T07:41:11.041Z,1.30
2023-03-07T07:43:39.381Z,1.40
2023-03-07T07:46:09.131Z,1.50
2023-03-07T07:48:37.396Z,1.50
2023-03-07T07:51:06.436Z,1.70
2023-03-07T07:53:35.876Z,1.70
2023-03-07T07:56:04.156Z,1.90
2023-03-07T07:58:32.347Z,1.90
2023-03-07T08:01:00.610Z,2.00
2023-03-07T08:03:30.205Z,2.10
2023-03-07T08:05:58.469Z,2.30
2023-03-07T08:08:26.713Z,2.60
2023-03-07T08:10:54.926Z,2.70
2023-03-07T08:13:23.401Z,2.80
2023-03-07T08:15:51.641Z,2.90
2023-03-07T08:18:19.878Z,3.10
2023-03-07T08:20:49.511Z,3.20
2023-03-07T08:23:18.010Z,3.10
2023-03-07T08:25:46.321Z,3.00
2023-03-07T08:28:14.531Z,2.90
2023-03-07T08:30:42.800Z,2.80
2023-03-07T08:33:11.010Z,2.70
2023-03-07T08:35:40.117Z,2.60
2023-03-07T08:38:10.274Z,2.60
2023-03-07T08:40:38.512Z,2.60
2023-03-07T08:43:07.982Z,2.70
2023-03-07T08:45:36.228Z,2.70
2023-03-07T08:48:04.597Z,2.80
2023-03-07T08:50:32.828Z,2.90
2023-03-07T08:53:01.049Z,3.00
2023-03-07T08:55:36.817Z,3.10
2023-03-07T08:58:05.010Z,3.30
2023-03-07T09:00:33.588Z,3.40
2023-03-07T09:03:01.814Z,3.40
2023-03-07T09:05:30.276Z,3.60
2023-03-07T09:07:58.495Z,3.70
2023-03-07T09:10:27.365Z,3.70
2023-03-07T09:12:56.954Z,3.80
2023-03-07T09:15:25.596Z,3.70
2023-03-07T09:17:53.968Z,3.70
2023-03-07T09:20:22.320Z,3.70
2023-03-07T09:22:51.716Z,4.00
2023-03-07T09:25:20.060Z,4.30
2023-03-07T09:27:49.557Z,4.40
2023-03-07T09:30:20.297Z,4.40
2023-03-07T09:32:48.671Z,4.40
2023-03-07T09:35:17.028Z,4.20
2023-03-07T09:37:45.265Z,4.10
2023-03-07T09:40:19.926Z,4.10
2023-03-07T09:42:55.982Z,3.90
2023-03-07T09:45:38.918Z,3.90
2023-03-07T09:48:49.487Z,3.90
2023-03-07T09:51:22.523Z,4.00
2023-03-07T09:53:55.833Z,4.00
2023-03-07T09:56:30.664Z,3.90
2023-03-07T09:59:13.734Z,3.80
2023-03-07T10:01:51.720Z,3.80
2023-03-07T10:04:27.876Z,3.80
2023-03-07T10:06:59.373Z,3.70
2023-03-07T10:09:29.170Z,3.70
2023-03-07T10:12:20.219Z,3.70
2023-03-07T10:15:07.908Z,3.80
2023-03-07T10:17:54.355Z,4.00
2023-03-07T10:20:31.705Z,4.00
2023-03-07T10:23:11.103Z,4.00
2023-03-07T10:25:47.212Z,4.00
2023-03-07T10:28:20.213Z,3.80
2023-03-07T10:30:49.768Z,3.70
2023-03-07T10:33:21.433Z,3.80
2023-03-07T10:35:55.030Z,3.60
2023-03-07T10:38:31.608Z,3.50
2023-03-07T10:41:03.922Z,3.50
2023-03-07T10:43:34.090Z,3.40
2023-03-07T10:46:23.936Z,3.20
2023-03-07T10:48:57.038Z,3.20
2023-03-07T10:51:39.008Z,3.20
2023-03-07T10:54:15.412Z,3.30
2023-03-07T10:56:51.939Z,3.40
2023-03-07T10:59:26.840Z,3.30
2023-03-07T11:01:58.058Z,3.20
2023-03-07T11:04:30.245Z,3.10
2023-03-07T11:07:00.622Z,3.00
2023-03-07T11:09:30.439Z,2.90
2023-03-07T11:12:00.056Z,3.00
2023-03-07T11:14:33.498Z,3.10
2023-03-07T11:17:03.379Z,3.20
2023-03-07T11:19:39.268Z,3.30
2023-03-07T11:22:24.807Z,3.30
2023-03-07T11:24:57.800Z,3.40
2023-03-07T11:27:37.777Z,3.50
2023-03-07T11:30:18.192Z,3.70
2023-03-07T11:32:53.037Z,3.80
2023-03-07T11:35:31.223Z,3.80
2023-03-07T11:38:08.843Z,3.90
2023-03-07T11:40:43.409Z,3.80
2023-03-07T11:43:21.784Z,3.90
2023-03-07T11:45:56.629Z,4.00
2023-03-07T11:48:40.625Z,4.10
2023-03-07T11:51:28.505Z,4.30
2023-03-07T11:54:08.913Z,4.30
2023-03-07T11:56:40.852Z,4.20
2023-03-07T12:00:01.624Z,4.20
2023-03-07T12:02:50.682Z,4.20
2023-03-07T12:05:34.103Z,4.10
2023-03-07T12:08:29.840Z,4.00
2023-03-07T12:11:08.799Z,4.00
2023-03-07T12:13:46.774Z,4.00
2023-03-07T12:16:27.044Z,4.10
2023-03-07T12:19:21.092Z,4.10
2023-03-07T12:22:05.349Z,4.10
2023-03-07T12:24:39.655Z,4.10
2023-03-07T12:27:14.108Z,4.30
2023-03-07T12:29:47.335Z,4.50
2023-03-07T12:32:19.871Z,4.50
2023-03-07T12:34:58.113Z,4.50
2023-03-07T12:37:31.988Z,4.50
2023-03-07T12:40:04.237Z,4.40
2023-03-07T12:42:39.602Z,4.50
2023-03-07T12:45:12.516Z,4.70
2023-03-07T12:47:57.039Z,4.80
2023-03-07T12:50:31.357Z,4.80
2023-03-07T12:53:03.846Z,4.80
2023-03-07T12:55:39.546Z,4.70
2023-03-07T12:58:14.389Z,4.70
2023-03-07T13:00:49.342Z,4.80
2023-03-07T13:03:24.643Z,4.90
2023-03-07T13:05:53.187Z,4.90
2023-03-07T13:08:24.597Z,5.00
2023-03-07T13:10:54.641Z,5.00
2023-03-07T13:13:58.457Z,5.10
2023-03-07T13:16:42.473Z,5.00
2023-03-07T13:19:43.825Z,5.00
2023-03-07T13:22:49.394Z,4.90
2023-03-07T13:25:57.420Z,5.00
2023-03-07T13:28:53.558Z,5.10
2023-03-07T13:31:45.592Z,5.20
2023-03-07T13:34:51.602Z,5.30
2023-03-07T13:37:54.335Z,5.30
2023-03-07T13:40:58.978Z,5.40
2023-03-07T13:44:03.165Z,5.40
2023-03-07T13:46:49.303Z,5.50
2023-03-07T13:49:45.836Z,5.50
2023-03-07T13:52:38.674Z,5.50
2023-03-07T13:55:24.664Z,5.40
2023-03-07T13:57:53.425Z,5.20
2023-03-07T14:00:32.795Z,5.10
2023-03-07T14:03:02.149Z,5.10
2023-03-07T14:05:33.158Z,5.00
2023-03-07T14:08:03.203Z,5.00
2023-03-07T14:10:32.817Z,5.00
2023-03-07T14:13:35.378Z,5.10
2023-03-07T14:16:26.570Z,5.10
2023-03-07T14:19:04.566Z,5.00
2023-03-07T14:21:46.260Z,5.00
2023-03-07T14:24:37.957Z,5.00
2023-03-07T14:27:12.148Z,5.00
2023-03-07T14:29:56.927Z,4.90
2023-03-07T14:32:30.080Z,4.80
2023-03-07T14:34:59.519Z,4.70
2023-03-07T14:37:29.474Z,4.60
2023-03-07T14:40:15.017Z,4.60
2023-03-07T14:42:49.232Z,4.50
2023-03-07T14:45:28.224Z,4.40
2023-03-07T14:48:16.398Z,4.40
2023-03-07T14:50:45.766Z,4.30
2023-03-07T14:53:19.631Z,4.40
2023-03-07T14:55:51.261Z,4.30
2023-03-07T14:58:23.120Z,4.40
2023-03-07T15:00:59.674Z,4.40
2023-03-07T15:03:35.076Z,4.40
2023-03-07T15:06:04.440Z,4.30
2023-03-07T15:08:35.231Z,4.30
2023-03-07T15:11:07.713Z,4.30
2023-03-07T15:13:39.691Z,4.20
2023-03-07T15:16:13.609Z,4.10
2023-03-07T15:18:55.884Z,4.10
2023-03-07T15:21:27.064Z,4.00
2023-03-07T15:23:57.895Z,4.00
2023-03-07T15:26:28.416Z,4.00
2023-03-07T15:29:02.266Z,4.00
2023-03-07T15:31:32.867Z,4.00
2023-03-07T15:34:21.423Z,4.00
2023-03-07T15:36:49.660Z,4.00
2023-03-07T15:39:31.302Z,4.00
2023-03-07T15:42:04.848Z,4.10
2023-03-07T15:44:33.631Z,4.10
2023-03-07T15:47:07.007Z,4.10
2023-03-07T15:49:43.300Z,4.10
2023-03-07T15:52:28.252Z,4.10
2023-03-07T15:54:58.547Z,4.00
2023-03-07T15:57:29.366Z,4.00
2023-03-07T16:00:00.465Z,4.00
2023-03-07T16:02:46.683Z,3.90
2023-03-07T16:05:37.363Z,4.00
2023-03-07T16:08:13.718Z,4.00
2023-03-07T16:10:54.837Z,4.00
2023-03-07T16:13:26.283Z,4.00
2023-03-07T16:16:06.989Z,4.10
2023-03-07T16:18:35.888Z,4.10
2023-03-07T16:21:05.791Z,4.00
2023-03-07T16:23:34.165Z,3.90
2023-03-07T16:26:07.070Z,3.90
2023-03-07T16:28:36.042Z,3.80
2023-03-07T16:31:04.319Z,3.70
2023-03-07T16:33:32.538Z,3.70
2023-03-07T16:36:00.871Z,3.60
2023-03-07T16:38:30.517Z,3.50
2023-03-07T16:40:59.445Z,3.40
2023-03-07T16:43:35.473Z,3.30
2023-03-07T16:46:06.608Z,3.30
2023-03-07T16:48:38.319Z,3.20
2023-03-07T16:51:07.488Z,3.20
2023-03-07T16:53:37.114Z,3.10
2023-03-07T16:56:05.575Z,3.20
2023-03-07T16:58:37.182Z,3.20
2023-03-07T17:01:06.416Z,3.20
2023-03-07T17:03:40.714Z,3.20
2023-03-07T17:06:13.509Z,3.30
2023-03-07T17:08:43.137Z,3.30
2023-03-07T17:11:19.960Z,3.30
2023-03-07T17:13:58.424Z,3.40
2023-03-07T17:16:28.138Z,3.50
2023-03-07T17:18:59.466Z,3.60
2023-03-07T17:21:32.293Z,3.50
2023-03-07T17:24:01.998Z,3.60
2023-03-07T17:26:36.554Z,3.60
2023-03-07T17:29:09.881Z,3.70
2023-03-07T17:31:38.165Z,3.70
2023-03-07T17:34:06.396Z,3.70
2023-03-07T17:36:34.979Z,3.70
2023-03-07T17:39:04.812Z,3.60
2023-03-07T17:41:33.038Z,3.60
2023-03-07T17:44:10.222Z,3.50
2023-03-07T17:46:38.489Z,3.50
2023-03-07T17:49:06.906Z,3.50
2023-03-07T17:51:35.230Z,3.50
2023-03-07T17:54:06.794Z,3.50
2023-03-07T17:56:35.060Z,3.50
2023-03-07T17:59:06.456Z,3.60
2023-03-07T18:01:36.469Z,3.60
2023-03-07T18:04:06.350Z,3.60
2023-03-07T18:06:36.739Z,3.60
2023-03-07T18:09:07.192Z,3.50
2023-03-07T18:11:35.679Z,3.50
2023-03-07T18:14:04.009Z,3.50
2023-03-07T18:16:32.778Z,3.50
2023-03-07T18:19:05.708Z,3.50
2023-03-07T18:21:35.146Z,3.50
2023-03-07T18:24:03.539Z,3.30
2023-03-07T18:26:33.178Z,3.00
2023-03-07T18:29:02.212Z,2.70
2023-03-07T18:31:30.604Z,2.40
2023-03-07T18:34:00.853Z,2.10
2023-03-07T18:36:29.069Z,1.90
2023-03-07T18:39:00.019Z,1.70
2023-03-07T18:41:29.104Z,1.50
2023-03-07T18:44:00.585Z,1.30
2023-03-07T18:46:33.142Z,1.10
2023-03-07T18:49:02.168Z,1.00
2023-03-07T18:51:30.550Z,0.90
2023-03-07T18:54:08.971Z,0.80
2023-03-07T18:56:37.234Z,0.70
2023-03-07T18:59:10.619Z,0.70
2023-03-07T19:01:41.972Z,0.60
2023-03-07T19:04:11.629Z,0.60
2023-03-07T19:06:42.074Z,0.60
2023-03-07T19:09:15.908Z,0.60
2023-03-07T19:11:50.443Z,0.50
2023-03-07T19:14:23.161Z,0.50
2023-03-07T19:16:51.709Z,0.50
2023-03-07T19:19:20.146Z,0.50
2023-03-07T19:21:48.412Z,0.50
2023-03-07T19:24:16.649Z,0.50
2023-03-07T19:26:44.879Z,0.50
2023-03-07T19:29:13.272Z,0.50
2023-03-07T19:31:44.594Z,0.50
2023-03-07T19:34:13.634Z,0.50
2023-03-07T19:36:51.251Z,0.50
2023-03-07T19:39:21.312Z,0.60
2023-03-07T19:41:52.293Z,0.60
2023-03-07T19:44:20.673Z,0.60
2023-03-07T19:46:50.357Z,0.60
2023-03-07T19:49:23.241Z,0.60
2023-03-07T19:51:54.950Z,0.50
2023-03-07T19:54:23.269Z,0.60
2023-03-07T19:57:06.874Z,0.60
2023-03-07T19:59:41.268Z,0.60
2023-03-07T20:02:13.950Z,0.60
2023-03-07T20:04:53.059Z,0.60
2023-03-07T20:07:21.555Z,0.50
2023-03-07T20:09:57.886Z,0.60
2023-03-07T20:12:26.318Z,0.60
2023-03-07T20:14:54.678Z,0.60
2023-03-07T20:17:24.639Z,0.60
2023-03-07T20:19:53.494Z,0.50
2023-03-07T20:22:24.487Z,0.50
2023-03-07T20:24:53.147Z,0.50
2023-03-07T20:27:25.056Z,0.50
2023-03-07T20:29:57.573Z,0.50
2023-03-07T20:32:36.541Z,0.50
2023-03-07T20:35:05.595Z,0.40
2023-03-07T20:37:36.016Z,0.40
2023-03-07T20:40:08.354Z,0.40
2023-03-07T20:42:42.053Z,0.40
2023-03-07T20:45:11.839Z,0.40
2023-03-07T20:47:41.597Z,0.40
2023-03-07T20:50:11.541Z,0.40
2023-03-07T20:52:39.903Z,0.40
2023-03-07T20:55:12.027Z,0.40
2023-03-07T20:57:41.177Z,0.40
2023-03-07T21:00:10.844Z,0.40
2023-03-07T21:02:39.720Z,0.40
2023-03-07T21:05:10.054Z,0.40
2023-03-07T21:07:38.334Z,0.40
2023-03-07T21:10:07.057Z,0.40
2023-03-07T21:12:36.207Z,0.40
2023-03-07T21:15:04.673Z,0.30
2023-03-07T21:17:36.185Z,0.30
2023-03-07T21:20:09.590Z,0.40
2023-03-07T21:22:37.786Z,0.40
2023-03-07T21:25:06.803Z,0.40
2023-03-07T21:27:35.093Z,0.40
2023-03-07T21:30:04.537Z,0.40
2023-03-07T21:32:32.824Z,0.40
2023-03-07T21:35:04.281Z,0.40
2023-03-07T21:37:35.322Z,0.40
2023-03-07T21:40:05.253Z,0.40
2023-03-07T21:42:34.369Z,0.40
2023-03-07T21:45:02.625Z,0.40
2023-03-07T21:47:30.999Z,0.30
2023-03-07T21:49:59.254Z,0.40
2023-03-07T21:52:29.140Z,0.30
2023-03-07T21:54:58.789Z,0.30
2023-03-07T21:57:29.242Z,0.30
2023-03-07T21:59:57.467Z,0.30
2023-03-07T22:02:25.744Z,0.30
2023-03-07T22:04:53.973Z,0.30
2023-03-07T22:07:22.228Z,0.30
2023-03-07T22:09:50.455Z,0.30
2023-03-07T22:12:20.076Z,0.30
2023-03-07T22:14:51.628Z,0.30
2023-03-07T22:17:19.853Z,0.30
2023-03-07T22:19:48.078Z,0.20
2023-03-07T22:22:16.297Z,0.20
2023-03-07T22:24:44.554Z,0.20
2023-03-07T22:27:12.891Z,0.20
2023-03-07T22:29:42.572Z,0.20
2023-03-07T22:32:10.930Z,0.20
2023-03-07T22:34:39.360Z,0.20
2023-03-07T22:37:07.625Z,0.20
2023-03-07T22:39:36.087Z,0.20
2023-03-07T22:42:04.444Z,0.20
2023-03-07T22:44:32.677Z,0.10
2023-03-07T22:47:02.336Z,0.10
2023-03-07T22:49:33.868Z,0.10
2023-03-07T22:52:02.181Z,0.10
2023-03-07T22:54:30.487Z,0.10
2023-03-07T22:56:58.825Z,0.00
2023-03-07T22:59:27.098Z,0.00
2023-03-07T23:01:55.352Z,0.00
2023-03-07T23:04:25.126Z,0.00
2023-03-07T23:06:53.358Z,-0.10
2023-03-07T23:09:21.706Z,-0.10
2023-03-07T23:11:49.978Z,-0.10
2023-03-07T23:14:18.265Z,-0.20
2023-03-07T23:16:46.516Z,-0.20
2023-03-07T23:19:14.770Z,-0.20
2023-03-07T23:21:44.518Z,-0.20
2023-03-07T23:24:15.243Z,-0.20
2023-03-07T23:26:43.503Z,-0.30
2023-03-07T23:29:11.917Z,-0.30
2023-03-07T23:31:42.802Z,-0.30
2023-03-07T23:34:16.213Z,-0.30
2023-03-07T23:36:46.076Z,-0.30
2023-03-07T23:39:17.340Z,-0.30
2023-03-07T23:41:46.215Z,-0.30
2023-03-07T23:44:14.496Z,-0.30
2023-03-07T23:46:42.757Z,-0.30
2023-03-07T23:49:11.646Z,-0.30
2023-03-07T23:51:39.962Z,-0.40
2023-03-07T23:54:09.680Z,-0.40
2023-03-07T23:56:37.960Z,-0.40
2023-03-07T23:59:06.398Z,-0.40
